Goodsprings, Alabama
Current Conditions -  °F | °C
As of 3:35 PM on Monday 24 Nov 2014 (Local Time) from KJFX Reporting Station
Clear Clear  
Wind Chill: 63°   Ceiling: Unl
Heat Index: 63°   Visibility: 10mi
Dew Point: 37°   Wind: 8mph
Humidity: 39%   Direction: 240°WSW
Pressure: 29.91"   Gusts: NA
Location:  33.67°N, 87.23°W
Report Text: KJFX 242135Z AUTO 24007KT 10SM CLR 17/03 A2991 RMK A02 P-128
Loading
Personal Weather Stations






























Interactive Weather Map New forecast layout! Learn more

10-Day Weather Forecast

Advertisements
Track Severe Weather on mobile